createdAt,value
2023-04-16T00:01:10.367Z,101418.72
2023-04-16T00:03:37.462Z,101431.63
2023-04-16T00:06:04.790Z,101431.84
2023-04-16T00:08:31.772Z,101438.78
2023-04-16T00:10:58.664Z,101440.56
2023-04-16T00:13:27.581Z,101435.44
2023-04-16T00:15:54.578Z,101438.03
2023-04-16T00:18:21.571Z,101445.09
2023-04-16T00:20:49.398Z,101431.50
2023-04-16T00:23:17.203Z,101434.03
2023-04-16T00:25:44.172Z,101435.84
2023-04-16T00:28:11.220Z,101438.66
2023-04-16T00:30:38.458Z,101444.81
2023-04-16T00:33:05.585Z,101443.28
2023-04-16T00:35:32.687Z,101442.63
2023-04-16T00:37:59.774Z,101445.38
2023-04-16T00:40:30.198Z,101436.94
2023-04-16T00:42:57.236Z,101441.38
2023-04-16T00:45:24.294Z,101440.59
2023-04-16T00:47:51.878Z,101441.50
2023-04-16T00:50:19.120Z,101439.88
2023-04-16T00:52:48.115Z,101441.78
2023-04-16T00:55:17.759Z,101442.03
2023-04-16T00:57:46.022Z,101439.44
2023-04-16T01:00:13.598Z,101442.19
2023-04-16T01:02:40.751Z,101438.06
2023-04-16T01:05:08.355Z,101445.16
2023-04-16T01:07:35.372Z,101440.09
2023-04-16T01:10:03.400Z,101437.75
2023-04-16T01:12:32.700Z,101429.31
2023-04-16T01:14:59.888Z,101451.84
2023-04-16T01:17:26.951Z,101447.56
2023-04-16T01:19:54.037Z,101431.78
2023-04-16T01:22:21.001Z,101442.72
2023-04-16T01:24:48.256Z,101437.69
2023-04-16T01:27:15.829Z,101443.00
2023-04-16T01:29:43.020Z,101445.59
2023-04-16T01:32:10.651Z,101438.78
2023-04-16T01:34:40.817Z,101433.66
2023-04-16T01:37:10.271Z,101434.56
2023-04-16T01:39:37.217Z,101438.00
2023-04-16T01:42:04.261Z,101443.13
2023-04-16T01:44:31.326Z,101437.09
2023-04-16T01:46:58.445Z,101441.44
2023-04-16T01:49:25.756Z,101438.84
2023-04-16T01:51:53.063Z,101436.13
2023-04-16T01:54:20.073Z,101438.06
2023-04-16T01:56:47.027Z,101435.47
2023-04-16T01:59:14.019Z,101438.06
2023-04-16T02:01:42.630Z,101443.19
2023-04-16T02:04:10.872Z,101434.69
2023-04-16T02:06:38.232Z,101444.97
2023-04-16T02:09:05.186Z,101439.94
2023-04-16T02:11:32.813Z,101439.94
2023-04-16T02:14:00.135Z,101441.81
2023-04-16T02:16:27.534Z,101447.00
2023-04-16T02:19:04.839Z,101447.00
2023-04-16T02:21:35.799Z,101448.81
2023-04-16T02:24:03.366Z,101442.94
2023-04-16T02:26:31.497Z,101446.47
2023-04-16T02:29:04.332Z,101444.84
2023-04-16T02:31:38.893Z,101436.53
2023-04-16T02:34:07.006Z,101439.06
2023-04-16T02:36:34.287Z,101435.72
2023-04-16T02:39:01.669Z,101441.84
2023-04-16T02:41:28.853Z,101439.19
2023-04-16T02:43:56.446Z,101435.78
2023-04-16T02:46:23.479Z,101448.72
2023-04-16T02:48:50.762Z,101442.84
2023-04-16T02:51:17.816Z,101447.09
2023-04-16T02:53:46.240Z,101441.50
2023-04-16T02:56:14.021Z,101454.84
2023-04-16T02:58:41.347Z,101448.84
2023-04-16T03:01:08.534Z,101462.63
2023-04-16T03:03:35.705Z,101454.84
2023-04-16T03:06:02.776Z,101457.31
2023-04-16T03:08:29.748Z,101452.13
2023-04-16T03:10:56.799Z,101454.66
2023-04-16T03:13:23.772Z,101467.50
2023-04-16T03:15:50.874Z,101459.72
2023-04-16T03:18:18.109Z,101459.53
2023-04-16T03:20:45.158Z,101464.59
2023-04-16T03:23:12.284Z,101464.41
2023-04-16T03:25:40.724Z,101459.94
2023-04-16T03:28:09.247Z,101458.91
2023-04-16T03:30:37.985Z,101469.84
2023-04-16T03:33:06.757Z,101467.91
2023-04-16T03:35:33.809Z,101467.72
2023-04-16T03:38:01.545Z,101462.28
2023-04-16T03:40:28.962Z,101458.72
2023-04-16T03:42:56.392Z,101457.34
2023-04-16T03:45:23.379Z,101459.63
2023-04-16T03:47:52.950Z,101454.88
2023-04-16T03:50:22.848Z,101463.16
2023-04-16T03:52:49.797Z,101457.56
2023-04-16T03:55:17.915Z,101465.00
2023-04-16T03:57:46.988Z,101464.53
2023-04-16T04:00:16.128Z,101464.09
2023-04-16T04:03:01.899Z,101469.50
2023-04-16T04:05:29.219Z,101466.41
2023-04-16T04:07:56.590Z,101468.50
2023-04-16T04:10:23.508Z,101463.94
2023-04-16T04:12:50.577Z,101462.28
2023-04-16T04:15:17.648Z,101465.06
2023-04-16T04:17:44.573Z,101458.66
2023-04-16T04:20:12.659Z,101459.66
2023-04-16T04:22:43.768Z,101452.72
2023-04-16T04:25:12.307Z,101452.19
2023-04-16T04:27:39.349Z,101455.03
2023-04-16T04:30:07.375Z,101453.84
2023-04-16T04:32:34.468Z,101461.53
2023-04-16T04:35:02.948Z,101453.66
2023-04-16T04:37:31.742Z,101454.63
2023-04-16T04:39:58.790Z,101457.25
2023-04-16T04:42:25.719Z,101461.53
2023-04-16T04:44:54.483Z,101453.09
2023-04-16T04:47:21.968Z,101451.47
2023-04-16T04:49:49.029Z,101450.97
2023-04-16T04:52:16.002Z,101452.91
2023-04-16T04:54:43.055Z,101457.66
2023-04-16T04:57:10.093Z,101459.28
2023-04-16T04:59:37.099Z,101459.09
2023-04-16T05:02:04.070Z,101454.38
2023-04-16T05:04:31.526Z,101455.06
2023-04-16T05:06:58.620Z,101448.50
2023-04-16T05:09:25.556Z,101456.13
2023-04-16T05:11:52.923Z,101444.22
2023-04-16T05:14:20.032Z,101449.72
2023-04-16T05:16:47.384Z,101450.97
2023-04-16T05:19:14.668Z,101453.53
2023-04-16T05:21:41.593Z,101455.38
2023-04-16T05:24:08.670Z,101434.50
2023-04-16T05:26:35.662Z,101442.78
2023-04-16T05:29:02.573Z,101452.09
2023-04-16T05:31:29.524Z,101447.22
2023-04-16T05:33:56.503Z,101456.56
2023-04-16T05:36:23.466Z,101444.31
2023-04-16T05:38:50.662Z,101450.81
2023-04-16T05:41:17.611Z,101442.78
2023-04-16T05:43:44.613Z,101435.66
2023-04-16T05:46:11.567Z,101437.78
2023-04-16T05:48:38.628Z,101432.69
2023-04-16T05:51:05.839Z,101421.03
2023-04-16T05:53:32.859Z,101428.44
2023-04-16T05:55:59.785Z,101424.13
2023-04-16T05:58:26.719Z,101429.28
2023-04-16T06:00:53.786Z,101421.31
2023-04-16T06:03:20.977Z,101418.06
2023-04-16T06:05:48.067Z,101419.78
2023-04-16T06:08:15.061Z,101421.84
2023-04-16T06:10:42.028Z,101426.88
2023-04-16T06:13:08.991Z,101424.44
2023-04-16T06:15:35.999Z,101421.22
2023-04-16T06:18:03.073Z,101425.44
2023-04-16T06:20:30.804Z,101421.41
2023-04-16T06:22:57.953Z,101415.34
2023-04-16T06:25:24.887Z,101420.75
2023-04-16T06:27:51.990Z,101417.38
2023-04-16T06:30:19.969Z,101418.09
2023-04-16T06:32:47.124Z,101416.22
2023-04-16T06:35:14.200Z,101413.63
2023-04-16T06:37:41.594Z,101410.81
2023-04-16T06:40:08.991Z,101414.88
2023-04-16T06:42:36.708Z,101404.53
2023-04-16T06:45:03.983Z,101406.59
2023-04-16T06:47:32.311Z,101404.66
2023-04-16T06:49:59.217Z,101402.97
2023-04-16T06:52:26.330Z,101396.75
2023-04-16T06:54:53.404Z,101397.50
2023-04-16T06:57:20.455Z,101398.94
2023-04-16T06:59:47.404Z,101410.13
2023-04-16T07:02:14.510Z,101408.63
2023-04-16T07:04:41.647Z,101409.88
2023-04-16T07:07:09.147Z,101411.16
2023-04-16T07:09:36.094Z,101404.94
2023-04-16T07:12:03.206Z,101403.75
2023-04-16T07:14:30.130Z,101409.34
2023-04-16T07:16:57.154Z,101411.59
2023-04-16T07:19:24.137Z,101407.34
2023-04-16T07:21:51.430Z,101399.38
2023-04-16T07:24:18.630Z,101406.69
2023-04-16T07:26:45.526Z,101409.59
2023-04-16T07:29:12.604Z,101409.19
2023-04-16T07:31:39.749Z,101410.72
2023-04-16T07:34:06.754Z,101401.78
2023-04-16T07:36:33.663Z,101405.16
2023-04-16T07:39:01.149Z,101400.53
2023-04-16T07:41:29.692Z,101390.34
2023-04-16T07:43:56.726Z,101394.81
2023-04-16T07:46:24.824Z,101391.75
2023-04-16T07:48:53.507Z,101402.78
2023-04-16T07:51:20.621Z,101392.28
2023-04-16T07:53:47.758Z,101403.53
2023-04-16T07:56:14.777Z,101400.56
2023-04-16T07:58:41.759Z,101383.91
2023-04-16T08:01:08.801Z,101389.78
2023-04-16T08:03:35.934Z,101394.25
2023-04-16T08:06:03.096Z,101387.28
2023-04-16T08:08:30.269Z,101384.31
2023-04-16T08:10:58.124Z,101374.84
2023-04-16T08:13:25.328Z,101379.53
2023-04-16T08:15:52.316Z,101379.50
2023-04-16T08:18:19.989Z,101372.19
2023-04-16T08:20:46.962Z,101376.97
2023-04-16T08:23:13.920Z,101368.94
2023-04-16T08:25:40.968Z,101373.13
2023-04-16T08:28:08.059Z,101366.13
2023-04-16T08:30:35.225Z,101361.28
2023-04-16T08:33:02.606Z,101361.88
2023-04-16T08:35:29.690Z,101360.78
2023-04-16T08:37:58.026Z,101357.72
2023-04-16T08:40:29.072Z,101349.25
2023-04-16T08:42:59.351Z,101345.53
2023-04-16T08:45:27.593Z,101342.81
2023-04-16T08:47:54.754Z,101348.88
2023-04-16T08:50:26.753Z,101349.28
2023-04-16T08:52:58.858Z,101345.50
2023-04-16T08:55:36.151Z,101340.66
2023-04-16T08:58:08.649Z,101343.44
2023-04-16T09:00:37.742Z,101327.88
2023-04-16T09:03:10.430Z,101327.88
2023-04-16T09:05:38.742Z,101329.56
2023-04-16T09:08:07.010Z,101331.69
2023-04-16T09:10:34.920Z,101330.78
2023-04-16T09:13:01.949Z,101323.97
2023-04-16T09:15:29.699Z,101316.88
2023-04-16T09:17:57.823Z,101325.97
2023-04-16T09:20:25.080Z,101318.41
2023-04-16T09:22:52.293Z,101312.59
2023-04-16T09:25:22.683Z,101325.38
2023-04-16T09:27:51.108Z,101315.50
2023-04-16T09:30:30.785Z,101328.47
2023-04-16T09:33:23.505Z,101318.59
2023-04-16T09:35:52.451Z,101313.66
2023-04-16T09:38:20.876Z,101323.16
2023-04-16T09:40:48.211Z,101308.38
2023-04-16T09:43:19.077Z,101316.13
2023-04-16T09:45:50.996Z,101315.06
2023-04-16T09:48:31.087Z,101315.53
2023-04-16T09:50:59.436Z,101315.75
2023-04-16T09:53:31.448Z,101308.00
2023-04-16T09:56:03.580Z,101311.84
2023-04-16T09:58:30.949Z,101310.53
2023-04-16T10:01:06.906Z,101318.25
2023-04-16T10:03:34.987Z,101301.75
2023-04-16T10:06:18.707Z,101303.22
2023-04-16T10:08:53.317Z,101311.81
2023-04-16T10:11:21.525Z,101301.69
2023-04-16T10:13:48.909Z,101296.00
2023-04-16T10:16:16.453Z,101286.13
2023-04-16T10:18:45.936Z,101297.06
2023-04-16T10:21:13.096Z,101290.09
2023-04-16T10:23:40.757Z,101294.91
2023-04-16T10:26:08.079Z,101292.22
2023-04-16T10:28:36.342Z,101284.56
2023-04-16T10:31:08.923Z,101292.69
2023-04-16T10:33:40.333Z,101277.63
2023-04-16T10:36:27.796Z,101284.88
2023-04-16T10:38:58.619Z,101279.41
2023-04-16T10:41:26.956Z,101278.09
2023-04-16T10:44:04.694Z,101276.97
2023-04-16T10:46:34.454Z,101276.63
2023-04-16T10:49:12.263Z,101273.13
2023-04-16T10:51:39.541Z,101285.94
2023-04-16T10:54:10.096Z,101273.13
2023-04-16T10:56:37.680Z,101268.94
2023-04-16T10:59:06.367Z,101270.53
2023-04-16T11:01:51.671Z,101257.00
2023-04-16T11:04:22.341Z,101253.72
2023-04-16T11:07:05.876Z,101248.41
2023-04-16T11:09:54.136Z,101259.63
2023-04-16T11:12:24.748Z,101247.22
2023-04-16T11:14:59.180Z,101244.69
2023-04-16T11:17:48.147Z,101242.75
2023-04-16T11:20:25.336Z,101253.56
2023-04-16T11:22:53.857Z,101239.59
2023-04-16T11:25:26.001Z,101238.47
2023-04-16T11:27:53.911Z,101240.06
2023-04-16T11:30:38.024Z,101245.41
2023-04-16T11:33:09.992Z,101240.28
2023-04-16T11:35:39.642Z,101235.38
2023-04-16T11:38:07.558Z,101228.53
2023-04-16T11:40:36.053Z,101226.91
2023-04-16T11:43:05.129Z,101221.06
2023-04-16T11:45:32.171Z,101215.25
2023-04-16T11:47:59.304Z,101226.88
2023-04-16T11:50:28.392Z,101218.00
2023-04-16T11:52:57.971Z,101218.75
2023-04-16T11:55:25.036Z,101219.94
2023-04-16T11:57:52.583Z,101222.06
2023-04-16T12:00:24.320Z,101216.09
2023-04-16T12:02:54.164Z,101205.66
2023-04-16T12:05:39.024Z,101195.78
2023-04-16T12:08:11.569Z,101199.38
2023-04-16T12:10:56.105Z,101193.22
2023-04-16T12:13:23.182Z,101193.41
2023-04-16T12:15:55.057Z,101188.91
2023-04-16T12:18:24.108Z,101192.16
2023-04-16T12:20:51.594Z,101185.69
2023-04-16T12:23:30.127Z,101183.72
2023-04-16T12:26:02.683Z,101185.53
2023-04-16T12:28:32.504Z,101177.47
2023-04-16T12:31:00.632Z,101177.38
2023-04-16T12:33:27.754Z,101172.78
2023-04-16T12:35:55.061Z,101165.50
2023-04-16T12:38:24.224Z,101160.63
2023-04-16T12:40:52.150Z,101161.22
2023-04-16T12:43:21.926Z,101156.00
2023-04-16T12:45:49.575Z,101153.75
2023-04-16T12:48:16.590Z,101153.88
2023-04-16T12:50:44.571Z,101147.38
2023-04-16T12:53:12.087Z,101153.41
2023-04-16T12:55:39.105Z,101145.22
2023-04-16T12:58:11.135Z,101151.59
2023-04-16T13:00:40.510Z,101145.72
2023-04-16T13:03:07.877Z,101144.41
2023-04-16T13:05:35.258Z,101131.03
2023-04-16T13:08:02.270Z,101140.28
2023-04-16T13:10:30.492Z,101135.56
2023-04-16T13:12:57.469Z,101136.22
2023-04-16T13:15:24.681Z,101128.31
2023-04-16T13:17:51.932Z,101130.53
2023-04-16T13:20:19.269Z,101122.19
2023-04-16T13:22:46.515Z,101121.59
2023-04-16T13:25:13.464Z,101121.44
2023-04-16T13:27:40.686Z,101121.22
2023-04-16T13:30:08.318Z,101117.38
2023-04-16T13:32:35.565Z,101111.94
2023-04-16T13:35:02.767Z,101114.31
2023-04-16T13:37:30.972Z,101110.72
2023-04-16T13:39:58.034Z,101109.03
2023-04-16T13:42:25.048Z,101103.19
2023-04-16T13:44:54.284Z,101100.69
2023-04-16T13:47:21.963Z,101098.22
2023-04-16T13:49:49.282Z,101098.34
2023-04-16T13:52:16.417Z,101088.75
2023-04-16T13:54:43.494Z,101089.72
2023-04-16T13:57:19.953Z,101091.13
2023-04-16T13:59:47.026Z,101091.59
2023-04-16T14:02:14.051Z,101085.72
2023-04-16T14:04:43.659Z,101087.53
2023-04-16T14:07:10.703Z,101094.94
2023-04-16T14:09:37.828Z,101101.88
2023-04-16T14:12:05.955Z,101096.28
2023-04-16T14:14:32.917Z,101083.53
2023-04-16T14:17:00.001Z,101073.44
2023-04-16T14:19:27.062Z,101088.84
2023-04-16T14:21:54.457Z,101093.97
2023-04-16T14:24:21.717Z,101088.94
2023-04-16T14:26:48.600Z,101085.34
2023-04-16T14:29:15.676Z,101082.44
2023-04-16T14:31:42.736Z,101080.63
2023-04-16T14:34:09.788Z,101090.72
2023-04-16T14:36:37.012Z,101083.16
2023-04-16T14:39:04.822Z,101081.25
2023-04-16T14:41:31.823Z,101081.78
2023-04-16T14:43:59.597Z,101080.28
2023-04-16T14:46:27.242Z,101089.44
2023-04-16T14:48:54.306Z,101091.38
2023-04-16T14:51:21.437Z,101089.59
2023-04-16T14:53:48.406Z,101085.03
2023-04-16T14:56:15.568Z,101080.44
2023-04-16T14:58:43.444Z,101076.13
2023-04-16T15:01:10.630Z,101074.50
2023-04-16T15:03:37.923Z,101080.03
2023-04-16T15:06:05.886Z,101076.41
2023-04-16T15:08:34.849Z,101072.41
2023-04-16T15:11:01.977Z,101072.56
2023-04-16T15:13:33.883Z,101071.88
2023-04-16T15:16:07.434Z,101070.06
2023-04-16T15:18:36.059Z,101068.50
2023-04-16T15:21:03.985Z,101065.16
2023-04-16T15:23:31.133Z,101074.72
2023-04-16T15:25:58.448Z,101070.78
2023-04-16T15:28:25.432Z,101072.16
2023-04-16T15:30:52.542Z,101074.66
2023-04-16T15:33:22.436Z,101075.47
2023-04-16T15:35:51.624Z,101068.81
2023-04-16T15:38:21.109Z,101071.84
2023-04-16T15:40:48.209Z,101075.47
2023-04-16T15:43:16.061Z,101070.22
2023-04-16T15:45:43.004Z,101067.44
2023-04-16T15:48:10.092Z,101068.53
2023-04-16T15:50:37.265Z,101064.78
2023-04-16T15:53:04.258Z,101071.28
2023-04-16T15:55:31.204Z,101072.41
2023-04-16T15:57:58.249Z,101072.41
2023-04-16T16:00:25.824Z,101077.06
2023-04-16T16:02:52.845Z,101074.84
2023-04-16T16:05:20.037Z,101072.34
2023-04-16T16:07:47.468Z,101073.06
2023-04-16T16:10:14.599Z,101071.25
2023-04-16T16:12:41.779Z,101072.63
2023-04-16T16:15:11.149Z,101073.47
2023-04-16T16:17:39.433Z,101076.09
2023-04-16T16:20:10.536Z,101076.50
2023-04-16T16:22:38.386Z,101073.44
2023-04-16T16:25:06.115Z,101075.22
2023-04-16T16:27:32.981Z,101075.22
2023-04-16T16:30:01.085Z,101073.84
2023-04-16T16:32:28.274Z,101073.09
2023-04-16T16:34:56.253Z,101075.03
2023-04-16T16:37:23.306Z,101069.78
2023-04-16T16:39:50.596Z,101078.63
2023-04-16T16:42:19.026Z,101072.50
2023-04-16T16:44:49.538Z,101075.66
2023-04-16T16:47:16.613Z,101073.16
2023-04-16T16:49:44.514Z,101070.22
2023-04-16T16:52:11.592Z,101078.50
2023-04-16T16:54:38.631Z,101072.34
2023-04-16T16:57:05.847Z,101073.97
2023-04-16T16:59:32.855Z,101072.78
2023-04-16T17:01:59.972Z,101068.31
2023-04-16T17:04:26.996Z,101073.34
2023-04-16T17:06:54.074Z,101071.72
2023-04-16T17:09:21.484Z,101078.97
2023-04-16T17:11:48.347Z,101085.56
2023-04-16T17:14:15.365Z,101080.56
2023-04-16T17:16:42.436Z,101081.75
2023-04-16T17:19:09.657Z,101079.38
2023-04-16T17:21:36.882Z,101078.94
2023-04-16T17:24:04.155Z,101079.88
2023-04-16T17:26:31.960Z,101074.63
2023-04-16T17:28:59.457Z,101074.50
2023-04-16T17:31:29.539Z,101072.13
2023-04-16T17:33:56.622Z,101073.94
2023-04-16T17:36:23.699Z,101075.47
2023-04-16T17:38:50.771Z,101074.63
2023-04-16T17:41:17.969Z,101072.97
2023-04-16T17:43:48.002Z,101072.63
2023-04-16T17:46:15.270Z,101073.31
2023-04-16T17:48:44.060Z,101068.88
2023-04-16T17:51:12.037Z,101070.56
2023-04-16T17:53:39.402Z,101073.31
2023-04-16T17:56:07.081Z,101076.75
2023-04-16T17:58:35.419Z,101063.63
2023-04-16T18:01:03.401Z,101066.13
2023-04-16T18:03:30.926Z,101065.31
2023-04-16T18:05:58.218Z,101068.06
2023-04-16T18:08:25.428Z,101064.38
2023-04-16T18:10:52.583Z,101060.06
2023-04-16T18:13:19.656Z,101060.78
2023-04-16T18:15:47.337Z,101065.06
2023-04-16T18:18:14.430Z,101064.09
2023-04-16T18:20:41.808Z,101059.81
2023-04-16T18:23:08.701Z,101054.56
2023-04-16T18:25:35.883Z,101066.72
2023-04-16T18:28:04.053Z,101050.16
2023-04-16T18:30:31.352Z,101044.47
2023-04-16T18:35:28.446Z,101055.97
2023-04-16T18:37:55.515Z,101049.06
2023-04-16T18:40:22.454Z,101047.91
2023-04-16T18:42:49.604Z,101053.47
2023-04-16T18:45:21.582Z,101056.09
2023-04-16T18:47:50.412Z,101046.56
2023-04-16T18:50:17.583Z,101053.59
2023-04-16T18:52:44.567Z,101054.69
2023-04-16T18:55:11.564Z,101059.38
2023-04-16T18:57:38.623Z,101057.56
2023-04-16T19:00:12.496Z,101053.03
2023-04-16T19:02:40.724Z,101047.91
2023-04-16T19:05:09.620Z,101052.44
2023-04-16T19:07:37.645Z,101046.75
2023-04-16T19:10:05.987Z,101045.56
2023-04-16T19:12:33.088Z,101046.03
2023-04-16T19:15:00.484Z,101042.59
2023-04-16T19:17:27.574Z,101040.09
2023-04-16T19:19:54.463Z,101041.03
2023-04-16T19:22:21.503Z,101042.84
2023-04-16T19:24:48.781Z,101036.31
2023-04-16T19:27:15.853Z,101035.47
2023-04-16T19:29:43.571Z,101042.25
2023-04-16T19:32:11.466Z,101037.00
2023-04-16T19:34:39.269Z,101039.88
2023-04-16T19:37:06.329Z,101040.59
2023-04-16T19:39:33.620Z,101042.50
2023-04-16T19:42:01.861Z,101037.50
2023-04-16T19:44:28.818Z,101036.69
2023-04-16T19:46:55.763Z,101044.69
2023-04-16T19:49:22.940Z,101047.78
2023-04-16T19:51:49.864Z,101041.56
2023-04-16T19:54:17.714Z,101048.50
2023-04-16T19:56:44.665Z,101048.25
2023-04-16T19:59:11.725Z,101050.16
2023-04-16T20:01:38.840Z,101050.16
2023-04-16T20:04:06.982Z,101044.94
2023-04-16T20:06:34.089Z,101044.69
2023-04-16T20:09:01.254Z,101045.38
2023-04-16T20:11:28.254Z,101048.25
2023-04-16T20:13:55.174Z,101048.25
2023-04-16T20:16:24.098Z,101049.19
2023-04-16T20:18:54.272Z,101045.16
2023-04-16T20:21:21.776Z,101043.38
2023-04-16T20:23:48.915Z,101045.16
2023-04-16T20:26:18.469Z,101043.75
2023-04-16T20:28:45.752Z,101049.81
2023-04-16T20:31:13.092Z,101035.19
2023-04-16T20:33:40.038Z,101043.03
2023-04-16T20:36:07.453Z,101042.06
2023-04-16T20:38:35.678Z,101044.69
2023-04-16T20:41:14.583Z,101043.97
2023-04-16T20:43:42.307Z,101040.66
2023-04-16T20:46:10.918Z,101041.97
2023-04-16T20:48:39.058Z,101033.66
2023-04-16T20:51:07.898Z,101038.06
2023-04-16T20:53:37.135Z,101035.81
2023-04-16T20:56:04.885Z,101029.63
2023-04-16T20:58:32.000Z,101038.47
2023-04-16T21:00:59.216Z,101029.19
2023-04-16T21:03:26.686Z,101030.72
2023-04-16T21:05:57.696Z,101030.25
2023-04-16T21:08:27.519Z,101028.50
2023-04-16T21:10:54.417Z,101033.00
2023-04-16T21:13:21.911Z,101037.53
2023-04-16T21:15:49.045Z,101029.91
2023-04-16T21:18:17.109Z,101030.50
2023-04-16T21:20:44.574Z,101028.97
2023-04-16T21:23:11.627Z,101033.25
2023-04-16T21:25:38.712Z,101034.56
2023-04-16T21:28:06.390Z,101035.28
2023-04-16T21:30:33.509Z,101032.78
2023-04-16T21:33:00.913Z,101027.91
2023-04-16T21:35:27.962Z,101040.03
2023-04-16T21:37:54.964Z,101036.56
2023-04-16T21:40:21.944Z,101028.38
2023-04-16T21:42:49.093Z,101047.44
2023-04-16T21:45:16.070Z,101043.59
2023-04-16T21:47:43.038Z,101046.22
2023-04-16T21:50:10.504Z,101044.69
2023-04-16T21:52:40.822Z,101038.59
2023-04-16T21:55:09.582Z,101041.47
2023-04-16T21:57:36.664Z,101050.19
2023-04-16T22:00:09.226Z,101043.38
2023-04-16T22:02:36.652Z,101045.19
2023-04-16T22:05:03.791Z,101041.81
2023-04-16T22:07:31.345Z,101037.56
2023-04-16T22:09:58.238Z,101045.66
2023-04-16T22:12:25.270Z,101046.69
2023-04-16T22:15:02.374Z,101044.09
2023-04-16T22:17:34.459Z,101047.06
2023-04-16T22:20:13.191Z,101048.97
2023-04-16T22:22:41.604Z,101050.75
2023-04-16T22:25:09.516Z,101050.13
2023-04-16T22:27:36.832Z,101046.09
2023-04-16T22:30:04.217Z,101060.25
2023-04-16T22:32:34.807Z,101051.69
2023-04-16T22:35:02.010Z,101056.94
2023-04-16T22:37:30.833Z,101053.91
2023-04-16T22:39:58.122Z,101057.59
2023-04-16T22:42:25.089Z,101057.59
2023-04-16T22:44:52.119Z,101055.09
2023-04-16T22:47:19.030Z,101055.31
2023-04-16T22:49:47.462Z,101052.81
2023-04-16T22:52:14.433Z,101049.50
2023-04-16T22:54:41.342Z,101053.16
2023-04-16T22:57:08.359Z,101049.72
2023-04-16T22:59:35.526Z,101048.28
2023-04-16T23:02:02.629Z,101036.63
2023-04-16T23:04:29.848Z,101042.59
2023-04-16T23:06:56.995Z,101043.41
2023-04-16T23:09:24.010Z,101054.97
2023-04-16T23:11:51.037Z,101040.44
2023-04-16T23:14:18.101Z,101046.25
2023-04-16T23:16:45.115Z,101048.88
2023-04-16T23:19:15.064Z,101048.97
2023-04-16T23:21:42.193Z,101049.84
2023-04-16T23:24:09.246Z,101046.59
2023-04-16T23:26:36.177Z,101049.97
2023-04-16T23:29:03.259Z,101046.38
2023-04-16T23:31:30.450Z,101041.13
2023-04-16T23:33:57.434Z,101045.66
2023-04-16T23:36:24.344Z,101039.59
2023-04-16T23:38:51.263Z,101041.38
2023-04-16T23:41:18.227Z,101048.28
2023-04-16T23:43:45.140Z,101041.38
2023-04-16T23:46:12.160Z,101038.75
2023-04-16T23:48:39.095Z,101037.44
2023-04-16T23:51:06.087Z,101033.50
2023-04-16T23:53:33.223Z,101032.56
2023-04-16T23:56:00.145Z,101035.16
2023-04-16T23:58:27.220Z,101039.69
